Time;durP1;ratioP1;P1;durP2;ratioP2;P2;SDS_P1;SDS_P2;PMS_P1;PMS_P2;Temp;Humidity;BMP_temperature;BMP_pressure;BME280_temperature;BME280_humidity;BME280_pressure;Samples;Min_cycle;Max_cycle;Signal;HPM_P1;HPM_P2
2022/03/29 00:01:40;;;;;;;15.55;7.20;;;11.60;92.60;;;;;;5099809;28;20020;-78
2022/03/29 00:04:06;;;;;;;14.35;7.00;;;11.60;92.80;;;;;;5099890;28;20468;-78
2022/03/29 00:06:32;;;;;;;18.60;7.13;;;11.60;92.60;;;;;;5098643;28;20039;-78
2022/03/29 00:08:58;;;;;;;19.33;6.85;;;11.60;92.90;;;;;;5099954;28;20516;-77
2022/03/29 00:11:24;;;;;;;17.45;6.97;;;11.60;92.80;;;;;;5098603;28;20115;-78
2022/03/29 00:13:50;;;;;;;19.20;8.63;;;11.60;92.90;;;;;;5098144;28;20109;-77
2022/03/29 00:16:17;;;;;;;13.18;7.07;;;11.60;93.10;;;;;;5098480;28;20389;-77
2022/03/29 00:18:43;;;;;;;17.25;7.30;;;11.60;93.40;;;;;;5099270;28;20498;-76
2022/03/29 00:21:10;;;;;;;16.83;7.25;;;11.60;93.10;;;;;;5099504;28;20024;-76
2022/03/29 00:23:36;;;;;;;13.52;7.47;;;11.60;93.20;;;;;;5099427;28;20063;-76
2022/03/29 00:26:02;;;;;;;13.98;6.43;;;11.60;93.40;;;;;;5099427;28;20024;-76
2022/03/29 00:28:28;;;;;;;10.27;6.88;;;11.60;93.40;;;;;;5099301;28;20102;-79
2022/03/29 00:30:55;;;;;;;14.32;6.80;;;11.60;93.40;;;;;;5099567;28;20024;-76
2022/03/29 00:33:20;;;;;;;15.45;7.57;;;11.60;93.70;;;;;;5098909;28;20053;-76
2022/03/29 00:35:46;;;;;;;19.23;7.68;;;11.60;93.50;;;;;;5099377;28;20442;-76
2022/03/29 00:38:12;;;;;;;16.00;7.00;;;11.60;93.40;;;;;;5098992;28;21029;-76
2022/03/29 00:40:38;;;;;;;23.80;7.28;;;11.50;93.60;;;;;;5099162;28;20020;-79
2022/03/29 00:43:05;;;;;;;13.65;7.20;;;11.50;93.70;;;;;;5097930;28;20028;-80
2022/03/29 00:45:31;;;;;;;12.82;6.88;;;11.50;94.20;;;;;;5099199;28;20023;-79
2022/03/29 00:47:57;;;;;;;15.48;7.65;;;11.50;94.00;;;;;;5096317;28;20450;-76
2022/03/29 00:50:23;;;;;;;20.85;7.22;;;11.50;94.20;;;;;;5098203;28;20028;-79
2022/03/29 00:52:49;;;;;;;16.42;6.55;;;11.50;94.00;;;;;;5098899;28;20028;-79
2022/03/29 00:55:15;;;;;;;16.17;7.72;;;11.50;94.20;;;;;;5099051;28;20031;-78
2022/03/29 00:57:41;;;;;;;17.08;6.30;;;11.50;94.30;;;;;;5097282;28;20505;-79
2022/03/29 01:00:08;;;;;;;16.67;7.47;;;11.50;94.20;;;;;;5097878;28;20032;-79
2022/03/29 01:02:34;;;;;;;17.42;7.93;;;11.50;94.40;;;;;;5098443;28;20012;-76
2022/03/29 01:05:01;;;;;;;16.50;7.20;;;11.40;94.40;;;;;;5097484;28;20024;-76
2022/03/29 01:07:27;;;;;;;18.55;7.43;;;11.40;94.60;;;;;;5097458;28;20093;-79
2022/03/29 01:09:54;;;;;;;13.38;6.55;;;11.30;94.60;;;;;;5097777;28;20070;-78
2022/03/29 01:12:19;;;;;;;13.93;7.15;;;11.30;94.80;;;;;;5098542;28;20020;-75
2022/03/29 01:14:47;;;;;;;13.57;6.07;;;11.20;95.00;;;;;;5097619;28;20822;-76
2022/03/29 01:20:01;;;;;;;15.85;7.30;;;11.20;95.00;;;;;;5098876;28;20035;-80
2022/03/29 01:22:28;;;;;;;22.13;10.20;;;11.30;95.00;;;;;;5097074;28;20020;-80
2022/03/29 01:24:55;;;;;;;19.02;7.32;;;11.30;95.20;;;;;;5097318;28;20110;-79
2022/03/29 01:27:22;;;;;;;11.00;7.00;;;11.30;95.20;;;;;;5097128;28;20050;-79
2022/03/29 01:29:50;;;;;;;17.77;6.60;;;11.30;95.30;;;;;;5097703;28;20024;-79
2022/03/29 01:32:17;;;;;;;16.75;7.43;;;11.20;95.20;;;;;;5098432;28;20035;-79
2022/03/29 01:34:43;;;;;;;14.18;7.13;;;11.20;95.20;;;;;;5098477;28;20020;-76
2022/03/29 01:37:10;;;;;;;19.30;7.28;;;11.20;95.30;;;;;;5112137;27;20040;-80
2022/03/29 01:39:37;;;;;;;14.27;6.13;;;11.20;95.40;;;;;;5089908;28;20024;-79
2022/03/29 01:42:04;;;;;;;16.70;6.97;;;11.20;95.50;;;;;;5096640;28;20074;-79
2022/03/29 01:44:30;;;;;;;11.43;7.22;;;11.20;95.50;;;;;;5098073;28;20054;-79
2022/03/29 01:46:56;;;;;;;17.30;6.97;;;11.20;95.50;;;;;;5096239;28;20048;-79
2022/03/29 01:49:22;;;;;;;15.77;7.03;;;11.20;95.60;;;;;;5096679;28;20020;-79
2022/03/29 01:51:49;;;;;;;12.55;6.50;;;11.20;95.60;;;;;;5097720;28;20031;-80
2022/03/29 01:54:15;;;;;;;14.95;6.25;;;11.20;95.90;;;;;;5097928;28;20108;-79
2022/03/29 01:56:41;;;;;;;12.38;6.32;;;11.10;96.00;;;;;;5097660;28;20078;-79
2022/03/29 01:59:09;;;;;;;13.55;6.10;;;11.10;96.00;;;;;;5097417;28;20024;-80
2022/03/29 02:01:46;;;;;;;18.40;8.07;;;11.10;96.10;;;;;;5097315;28;20365;-79
2022/03/29 02:04:12;;;;;;;14.27;6.95;;;11.10;96.20;;;;;;5096318;28;20512;-80
2022/03/29 02:06:39;;;;;;;16.33;6.55;;;11.10;96.10;;;;;;5096416;28;20031;-80
2022/03/29 02:09:10;;;;;;;19.52;7.03;;;11.10;96.10;;;;;;5093626;28;20035;-79
2022/03/29 02:11:40;;;;;;;14.23;7.30;;;11.10;96.20;;;;;;5097587;28;20024;-78
2022/03/29 02:14:06;;;;;;;11.27;6.00;;;11.00;96.30;;;;;;5097369;28;20549;-78
2022/03/29 02:16:33;;;;;;;20.10;7.55;;;11.00;96.80;;;;;;5097283;28;20016;-78
2022/03/29 02:18:59;;;;;;;16.42;7.90;;;10.90;96.80;;;;;;5096358;28;20028;-79
2022/03/29 02:21:25;;;;;;;13.90;6.65;;;10.90;97.00;;;;;;5097332;28;20558;-79
2022/03/29 02:23:51;;;;;;;11.85;6.60;;;10.80;97.00;;;;;;5095956;28;20069;-79
2022/03/29 02:26:18;;;;;;;18.08;6.53;;;10.80;97.80;;;;;;5097340;28;20028;-79
2022/03/29 02:28:44;;;;;;;12.23;7.50;;;10.70;97.60;;;;;;5097257;28;20031;-78
2022/03/29 02:31:10;;;;;;;12.00;6.43;;;10.80;97.70;;;;;;5097375;28;20059;-79
2022/03/29 02:33:36;;;;;;;12.13;6.97;;;10.70;97.80;;;;;;5095713;28;20024;-79
2022/03/29 02:36:02;;;;;;;18.52;7.97;;;10.70;97.90;;;;;;5096181;28;20034;-80
2022/03/29 02:38:28;;;;;;;16.80;7.35;;;10.70;98.10;;;;;;5095773;28;20122;-79
2022/03/29 02:40:57;;;;;;;13.35;6.63;;;10.70;98.70;;;;;;5095903;28;20067;-79
2022/03/29 02:43:26;;;;;;;12.30;6.93;;;10.60;98.80;;;;;;5097086;28;20048;-79
2022/03/29 02:45:52;;;;;;;19.65;7.03;;;10.60;98.80;;;;;;5097533;28;20016;-79
2022/03/29 02:48:18;;;;;;;18.02;6.00;;;10.50;99.10;;;;;;5096732;28;20572;-79
2022/03/29 02:50:44;;;;;;;11.85;7.45;;;10.50;99.40;;;;;;5097456;28;20100;-78
2022/03/29 02:53:11;;;;;;;11.13;6.78;;;10.50;99.40;;;;;;5097074;28;20024;-79
2022/03/29 02:55:38;;;;;;;16.08;7.47;;;10.50;99.70;;;;;;5097305;28;20418;-79
2022/03/29 02:58:04;;;;;;;15.95;7.03;;;10.50;99.90;;;;;;5095593;28;20040;-79
2022/03/29 03:00:30;;;;;;;17.48;7.22;;;10.50;99.90;;;;;;5097220;28;20512;-79
2022/03/29 03:02:56;;;;;;;13.68;7.70;;;10.40;99.90;;;;;;5095489;28;20093;-79
2022/03/29 03:05:26;;;;;;;15.15;7.20;;;10.40;99.90;;;;;;5097167;28;20065;-79
2022/03/29 03:07:52;;;;;;;16.73;7.28;;;10.40;99.90;;;;;;5096830;28;20039;-79
2022/03/29 03:10:19;;;;;;;15.23;7.78;;;10.40;99.90;;;;;;5096261;28;20089;-79
2022/03/29 03:12:47;;;;;;;16.58;7.80;;;10.50;99.90;;;;;;5100731;28;20111;-79
2022/03/29 03:15:14;;;;;;;14.73;7.78;;;10.40;99.90;;;;;;5099898;28;20059;-79
2022/03/29 03:17:41;;;;;;;11.02;7.53;;;10.40;99.90;;;;;;5078830;28;20036;-79
2022/03/29 03:20:07;;;;;;;20.88;7.93;;;10.40;99.90;;;;;;5091767;28;20027;-79
2022/03/29 03:22:37;;;;;;;12.82;7.18;;;10.40;99.90;;;;;;5100715;28;20016;-79
2022/03/29 03:25:04;;;;;;;15.27;7.28;;;10.40;99.90;;;;;;5099276;28;20028;-79
2022/03/29 03:27:30;;;;;;;15.43;7.03;;;10.40;99.90;;;;;;5100569;28;20055;-79
2022/03/29 03:29:55;;;;;;;20.38;7.85;;;10.40;99.90;;;;;;5099243;28;20028;-79
2022/03/29 03:32:21;;;;;;;13.85;8.07;;;10.40;99.90;;;;;;5098858;28;20024;-79
2022/03/29 03:34:47;;;;;;;13.52;7.93;;;10.40;99.90;;;;;;5100573;28;20020;-79
2022/03/29 03:37:13;;;;;;;21.00;7.53;;;10.40;99.90;;;;;;5100592;28;20020;-79
2022/03/29 03:39:39;;;;;;;11.02;6.85;;;10.40;99.90;;;;;;5100537;28;20046;-79
2022/03/29 03:42:07;;;;;;;23.63;7.15;;;10.40;99.90;;;;;;5100175;28;20036;-79
2022/03/29 03:44:33;;;;;;;22.15;8.25;;;10.40;99.90;;;;;;5099080;28;20497;-79
2022/03/29 03:47:02;;;;;;;15.27;8.15;;;10.40;99.90;;;;;;5098869;28;20553;-79
2022/03/29 03:49:28;;;;;;;14.60;7.30;;;10.40;99.90;;;;;;5100195;28;20043;-79
2022/03/29 03:51:54;;;;;;;12.45;7.07;;;10.40;99.90;;;;;;5100305;28;20395;-79
2022/03/29 03:54:20;;;;;;;14.75;7.78;;;10.40;99.90;;;;;;5098950;28;20024;-79
2022/03/29 03:56:46;;;;;;;18.73;7.72;;;10.40;99.90;;;;;;5098720;28;20576;-79
2022/03/29 03:59:12;;;;;;;25.90;7.40;;;10.40;99.90;;;;;;5100236;28;20098;-79
2022/03/29 04:01:38;;;;;;;20.75;7.75;;;10.40;99.90;;;;;;5099716;28;20480;-79
2022/03/29 04:04:04;;;;;;;11.88;7.22;;;10.40;99.90;;;;;;5098730;28;20020;-79
2022/03/29 04:06:30;;;;;;;10.88;7.95;;;10.40;99.90;;;;;;5100065;28;20024;-79
2022/03/29 04:08:56;;;;;;;23.67;7.78;;;10.40;99.90;;;;;;5097537;28;20026;-79
2022/03/29 04:11:22;;;;;;;15.88;7.35;;;10.40;99.90;;;;;;5098631;28;20412;-79
2022/03/29 04:13:48;;;;;;;17.98;7.13;;;10.30;99.90;;;;;;5098425;28;20020;-79
2022/03/29 04:16:14;;;;;;;19.45;7.75;;;10.30;99.90;;;;;;5099748;28;20028;-79
2022/03/29 04:18:39;;;;;;;16.35;7.35;;;10.30;99.90;;;;;;5099610;28;20038;-79
2022/03/29 04:21:07;;;;;;;18.33;8.57;;;10.30;99.90;;;;;;5098284;28;20032;-79
2022/03/29 04:23:37;;;;;;;14.73;8.18;;;10.20;99.90;;;;;;5100130;28;20020;-79
2022/03/29 04:26:04;;;;;;;16.20;7.78;;;10.20;99.90;;;;;;5098569;28;20035;-79
2022/03/29 04:28:31;;;;;;;17.92;7.75;;;10.20;99.90;;;;;;5099937;28;20071;-79
2022/03/29 04:30:59;;;;;;;16.27;6.82;;;10.20;99.90;;;;;;5099959;28;20024;-79
2022/03/29 04:33:25;;;;;;;15.70;7.78;;;10.10;99.90;;;;;;5093477;28;20024;-79
2022/03/29 04:35:51;;;;;;;14.38;7.57;;;10.20;99.90;;;;;;5098116;28;20114;-79
2022/03/29 04:38:17;;;;;;;16.33;7.85;;;10.10;99.90;;;;;;5099330;28;20056;-79
2022/03/29 04:40:43;;;;;;;13.35;7.43;;;10.10;99.90;;;;;;5099148;28;20380;-79
2022/03/29 04:43:09;;;;;;;12.75;8.35;;;10.10;99.90;;;;;;5099133;28;20024;-79
2022/03/29 04:45:35;;;;;;;23.77;9.20;;;10.10;99.90;;;;;;5099539;28;20024;-79
2022/03/29 04:48:01;;;;;;;16.77;7.93;;;10.20;99.90;;;;;;5097470;28;20031;-80
2022/03/29 04:50:27;;;;;;;21.13;8.05;;;10.20;99.90;;;;;;5097792;28;20024;-79
2022/03/29 04:52:53;;;;;;;14.48;8.13;;;10.20;99.90;;;;;;5098903;28;20028;-79
2022/03/29 04:55:19;;;;;;;13.50;7.55;;;10.30;99.90;;;;;;5089657;28;20032;-79
2022/03/29 04:57:49;;;;;;;15.93;6.95;;;10.30;99.90;;;;;;5098745;28;20506;-78
2022/03/29 05:00:20;;;;;;;12.63;7.78;;;10.30;99.90;;;;;;5099002;28;20028;-78
2022/03/29 05:02:46;;;;;;;12.68;7.68;;;10.40;99.90;;;;;;5097107;28;20032;-79
2022/03/29 05:05:13;;;;;;;18.73;7.72;;;10.40;99.90;;;;;;5097661;28;20491;-78
2022/03/29 05:07:40;;;;;;;13.63;7.70;;;10.40;99.90;;;;;;5097410;28;20103;-79
2022/03/29 05:10:11;;;;;;;19.67;8.10;;;10.30;99.90;;;;;;5098804;28;20020;-78
2022/03/29 05:12:45;;;;;;;15.80;7.95;;;10.30;99.90;;;;;;5097063;28;20024;-79
2022/03/29 05:15:13;;;;;;;19.10;8.45;;;10.40;99.90;;;;;;5098630;28;20016;-79
2022/03/29 05:17:40;;;;;;;13.82;7.20;;;10.40;99.90;;;;;;5097220;28;20050;-79
2022/03/29 05:20:07;;;;;;;16.15;8.18;;;10.40;99.90;;;;;;5097417;28;20111;-79
2022/03/29 05:22:47;;;;;;;15.65;8.60;;;10.50;99.90;;;;;;5097313;28;20020;-79
2022/03/29 05:25:21;;;;;;;15.18;8.30;;;10.50;99.90;;;;;;5098536;28;20028;-79
2022/03/29 05:27:48;;;;;;;18.60;8.02;;;10.50;99.90;;;;;;5098408;28;20051;-78
2022/03/29 05:30:16;;;;;;;13.63;8.68;;;10.60;99.90;;;;;;5097318;28;20024;-79
2022/03/29 05:32:42;;;;;;;14.82;8.95;;;10.60;99.90;;;;;;5096499;28;20028;-78
2022/03/29 05:35:11;;;;;;;20.38;9.27;;;10.60;99.90;;;;;;5098096;28;20476;-79
2022/03/29 05:37:39;;;;;;;15.57;8.02;;;10.70;99.90;;;;;;5098276;28;20023;-79
2022/03/29 05:40:07;;;;;;;13.23;9.38;;;10.70;99.90;;;;;;5097034;28;20422;-79
2022/03/29 05:42:45;;;;;;;21.27;8.13;;;10.70;99.90;;;;;;5097993;28;20036;-79
2022/03/29 05:45:13;;;;;;;16.20;9.02;;;10.70;99.90;;;;;;5098173;28;20438;-79
2022/03/29 05:50:25;;;;;;;29.33;9.57;;;10.80;99.90;;;;;;5098176;28;20515;-79
2022/03/29 05:52:51;;;;;;;12.93;8.27;;;10.80;99.90;;;;;;5097850;28;20502;-78
2022/03/29 05:55:17;;;;;;;14.00;8.75;;;10.80;99.90;;;;;;5097943;28;20056;-76
2022/03/29 05:57:43;;;;;;;14.23;8.20;;;10.70;99.90;;;;;;5097811;28;21377;-79
2022/03/29 06:00:12;;;;;;;11.57;9.00;;;10.70;99.90;;;;;;5096495;28;20012;-79
2022/03/29 06:02:39;;;;;;;15.43;8.80;;;10.70;99.90;;;;;;5097598;28;20021;-79
2022/03/29 06:05:07;;;;;;;14.70;8.20;;;10.70;99.90;;;;;;5089179;28;20468;-79
2022/03/29 06:07:33;;;;;;;13.93;8.82;;;10.70;99.90;;;;;;5092828;28;20020;-78
2022/03/29 06:09:59;;;;;;;14.98;8.07;;;10.70;99.90;;;;;;5096128;28;20457;-79
2022/03/29 06:12:25;;;;;;;16.42;9.82;;;10.70;99.90;;;;;;5097292;28;20032;-79
2022/03/29 06:14:51;;;;;;;19.05;9.23;;;10.70;99.90;;;;;;5097733;28;20023;-79
2022/03/29 06:17:17;;;;;;;19.00;9.32;;;10.80;99.90;;;;;;5097317;28;20092;-79
2022/03/29 06:19:44;;;;;;;22.98;9.25;;;10.80;99.90;;;;;;5097553;28;20020;-79
2022/03/29 06:22:10;;;;;;;16.13;9.40;;;10.80;99.90;;;;;;5096176;28;20024;-79
2022/03/29 06:24:36;;;;;;;15.32;9.43;;;10.80;99.90;;;;;;5095861;28;20031;-79
2022/03/29 06:27:02;;;;;;;23.10;9.25;;;10.80;99.90;;;;;;5097287;28;20016;-80
2022/03/29 06:29:28;;;;;;;17.17;9.43;;;10.80;99.90;;;;;;5096047;28;20034;-81
2022/03/29 06:31:54;;;;;;;13.10;7.93;;;10.80;99.90;;;;;;5097069;28;20035;-80
2022/03/29 06:34:21;;;;;;;17.75;9.60;;;10.70;99.90;;;;;;5089265;28;20025;-81
2022/03/29 06:36:48;;;;;;;19.70;8.57;;;10.80;99.90;;;;;;5095741;28;20063;-81
2022/03/29 06:39:14;;;;;;;14.32;8.80;;;10.80;99.90;;;;;;5095962;28;20028;-82
2022/03/29 06:41:43;;;;;;;16.77;9.07;;;10.80;99.90;;;;;;5097151;28;20059;-81
2022/03/29 06:44:10;;;;;;;11.85;8.82;;;10.90;99.90;;;;;;5097029;28;20051;-81
2022/03/29 06:46:37;;;;;;;18.15;9.93;;;11.00;99.90;;;;;;5099102;28;20028;-81
2022/03/29 06:49:04;;;;;;;12.23;8.25;;;11.10;99.90;;;;;;5100277;28;20395;-82
2022/03/29 06:51:33;;;;;;;18.52;9.13;;;11.20;99.90;;;;;;5100505;28;20024;-81
2022/03/29 06:54:00;;;;;;;11.33;8.77;;;11.40;99.90;;;;;;5099622;28;20017;-81
2022/03/29 06:56:26;;;;;;;12.20;9.07;;;11.50;99.90;;;;;;5100804;28;20054;-81
2022/03/29 06:58:52;;;;;;;17.35;9.75;;;11.70;99.90;;;;;;5100922;28;20028;-82
2022/03/29 07:01:18;;;;;;;13.27;8.45;;;11.80;99.90;;;;;;5094694;28;20430;-81
2022/03/29 07:03:44;;;;;;;16.75;11.25;;;11.90;99.90;;;;;;5098122;28;20020;-80
2022/03/29 07:06:10;;;;;;;21.95;10.82;;;12.00;99.90;;;;;;5083803;28;20049;-80
2022/03/29 07:11:15;;;;;;;13.60;9.27;;;12.00;99.90;;;;;;5081128;28;20032;-80
2022/03/29 07:11:24;;;;;;;20.08;10.25;;;12.10;99.90;;;;;;5093324;28;20377;-80
2022/03/29 07:13:50;;;;;;;14.85;9.48;;;12.00;99.90;;;;;;5089039;28;20028;-81
2022/03/29 07:16:16;;;;;;;16.65;10.25;;;12.10;99.90;;;;;;5094738;28;20112;-80
2022/03/29 07:18:42;;;;;;;18.05;9.60;;;12.10;99.90;;;;;;5100110;28;20430;-80
2022/03/29 07:21:10;;;;;;;15.52;8.30;;;12.20;99.90;;;;;;5099145;28;20012;-80
2022/03/29 07:23:40;;;;;;;17.25;9.30;;;12.30;99.90;;;;;;5092806;28;20016;-80
2022/03/29 07:26:06;;;;;;;19.48;10.18;;;12.30;99.90;;;;;;5095927;28;20024;-78
2022/03/29 07:28:32;;;;;;;14.38;8.18;;;12.30;99.90;;;;;;5100530;28;20043;-79
2022/03/29 07:30:58;;;;;;;12.68;9.48;;;12.40;99.90;;;;;;5101090;28;20024;-79
2022/03/29 07:33:24;;;;;;;15.45;9.45;;;12.40;99.90;;;;;;5098889;28;20399;-80
2022/03/29 07:35:50;;;;;;;15.57;9.32;;;12.50;99.90;;;;;;5100744;28;20095;-79
2022/03/29 07:38:16;;;;;;;17.20;9.45;;;12.60;99.90;;;;;;5094601;28;20028;-79
2022/03/29 07:40:43;;;;;;;15.63;8.93;;;12.80;99.90;;;;;;5098835;28;20020;-79
2022/03/29 07:43:11;;;;;;;22.65;8.95;;;13.00;99.90;;;;;;5100113;28;20474;-78
2022/03/29 07:45:38;;;;;;;16.95;8.95;;;13.10;99.90;;;;;;5098628;28;20048;-79
2022/03/29 07:48:05;;;;;;;18.35;9.57;;;13.20;99.90;;;;;;5099979;28;20092;-79
2022/03/29 07:50:33;;;;;;;17.15;9.52;;;13.20;99.90;;;;;;5091430;28;20024;-79
2022/03/29 07:53:00;;;;;;;19.02;9.10;;;13.20;99.90;;;;;;5095290;28;20024;-79
2022/03/29 07:55:27;;;;;;;20.92;10.40;;;13.30;99.90;;;;;;5099356;28;20027;-80
2022/03/29 07:57:53;;;;;;;22.33;9.50;;;13.30;99.90;;;;;;5098315;28;20468;-79
2022/03/29 08:00:31;;;;;;;17.80;9.25;;;13.30;99.90;;;;;;5098534;28;20080;-80
2022/03/29 08:03:05;;;;;;;21.50;9.60;;;13.30;99.90;;;;;;5097642;28;20524;-80
2022/03/29 08:05:33;;;;;;;18.67;9.40;;;13.30;99.90;;;;;;5098261;28;20020;-80
2022/03/29 08:07:59;;;;;;;21.77;9.18;;;13.30;99.90;;;;;;5099707;28;20377;-81
2022/03/29 08:10:28;;;;;;;19.23;10.05;;;13.20;99.90;;;;;;5099866;28;20475;-80
2022/03/29 08:12:58;;;;;;;14.63;8.35;;;13.30;99.90;;;;;;5098247;28;20550;-80
2022/03/29 08:15:24;;;;;;;14.07;8.90;;;13.40;99.90;;;;;;5097977;28;20024;-80
2022/03/29 08:17:50;;;;;;;10.45;8.35;;;13.40;99.90;;;;;;5097661;28;20024;-79
2022/03/29 08:20:17;;;;;;;23.17;9.88;;;13.50;99.90;;;;;;5094892;28;20028;-80
2022/03/29 08:22:46;;;;;;;16.17;9.15;;;13.60;99.90;;;;;;5099195;28;20035;-80
2022/03/29 08:25:16;;;;;;;16.40;10.18;;;13.60;99.90;;;;;;5098040;28;20020;-80
2022/03/29 08:27:46;;;;;;;20.48;8.65;;;13.70;99.90;;;;;;5097431;28;20445;-80
2022/03/29 08:30:15;;;;;;;12.93;8.45;;;13.90;99.90;;;;;;5099213;28;20020;-80
2022/03/29 08:32:41;;;;;;;13.70;9.20;;;13.90;99.90;;;;;;5099269;28;20020;-80
2022/03/29 08:35:09;;;;;;;16.52;9.85;;;13.90;99.90;;;;;;5099082;28;20843;-80
2022/03/29 08:37:36;;;;;;;16.90;9.82;;;13.90;99.90;;;;;;5097705;28;20035;-80
2022/03/29 08:40:05;;;;;;;16.35;9.27;;;14.00;99.90;;;;;;5098754;28;20396;-80
2022/03/29 08:42:31;;;;;;;19.35;9.15;;;14.00;99.90;;;;;;5098944;28;20047;-80
2022/03/29 08:44:58;;;;;;;18.95;10.20;;;14.00;99.90;;;;;;5097940;28;20038;-79
2022/03/29 08:47:25;;;;;;;15.88;8.32;;;14.20;99.90;;;;;;5098657;28;20027;-79
2022/03/29 08:49:51;;;;;;;23.48;9.45;;;14.20;99.90;;;;;;5097602;28;20032;-80
2022/03/29 08:52:20;;;;;;;25.00;9.18;;;14.20;99.90;;;;;;5088875;28;20024;-78
2022/03/29 08:54:46;;;;;;;18.90;10.45;;;14.30;99.90;;;;;;5098399;28;20086;-80
2022/03/29 08:57:13;;;;;;;18.35;9.27;;;14.40;99.90;;;;;;5099477;28;20028;-79
2022/03/29 08:59:40;;;;;;;15.18;8.82;;;14.30;99.90;;;;;;5099018;28;20079;-79
2022/03/29 09:02:16;;;;;;;21.05;10.10;;;14.40;99.90;;;;;;5098791;28;20048;-80
2022/03/29 09:04:43;;;;;;;16.92;8.85;;;14.60;99.90;;;;;;5098934;28;20054;-79
2022/03/29 09:07:10;;;;;;;12.57;7.95;;;14.60;99.90;;;;;;5096554;28;20013;-79
2022/03/29 09:09:40;;;;;;;17.77;8.77;;;14.70;99.90;;;;;;5096883;28;20062;-79
2022/03/29 09:12:18;;;;;;;22.15;9.88;;;14.80;99.90;;;;;;5085474;28;20028;-78
2022/03/29 09:14:59;;;;;;;15.23;8.95;;;15.00;99.90;;;;;;5091455;28;20067;-79
2022/03/29 09:17:35;;;;;;;;;;;15.10;99.90;;;;;;5097338;28;20150;-79
2022/03/29 09:20:11;;;;;;;19.35;8.73;;;15.20;99.90;;;;;;5092528;28;19912;-79
2022/03/29 09:22:49;;;;;;;16.73;8.82;;;15.40;99.90;;;;;;5092536;28;20024;-79
2022/03/29 09:25:18;;;;;;;14.65;8.80;;;15.50;99.90;;;;;;5093286;28;20020;-78
2022/03/29 09:27:51;;;;;;;18.30;8.65;;;15.50;99.90;;;;;;5080500;28;20028;-79
2022/03/29 09:30:17;;;;;;;17.38;9.63;;;15.60;99.90;;;;;;5079919;28;20461;-79
2022/03/29 09:33:05;;;;;;;23.15;8.52;;;15.70;99.90;;;;;;5087028;28;20035;-79
2022/03/29 09:35:32;;;;;;;24.17;9.02;;;15.80;99.90;;;;;;5096728;28;20026;-79
2022/03/29 09:38:01;;;;;;;18.90;8.85;;;15.70;99.90;;;;;;5096015;28;20016;-80
2022/03/29 09:40:38;;;;;;;17.40;8.85;;;15.70;99.90;;;;;;5097842;28;20416;-79
2022/03/29 09:43:07;;;;;;;27.50;10.43;;;15.80;99.90;;;;;;5086771;28;20134;-80
2022/03/29 09:45:42;;;;;;;15.25;8.80;;;15.90;99.90;;;;;;5122060;27;20032;-79
2022/03/29 09:48:22;;;;;;;19.67;9.57;;;16.10;99.90;;;;;;5090257;28;20051;-78
2022/03/29 09:50:49;;;;;;;18.50;8.90;;;16.20;99.90;;;;;;5095298;28;20091;-79
2022/03/29 09:53:37;;;;;;;14.98;7.28;;;16.20;99.90;;;;;;5091466;28;20100;-78
2022/03/29 09:56:04;;;;;;;20.38;8.05;;;16.40;99.90;;;;;;5087489;28;20049;-80
2022/03/29 09:58:31;;;;;;;22.40;8.73;;;16.40;99.90;;;;;;5093622;28;20032;-79
2022/03/29 10:00:57;;;;;;;16.30;8.48;;;16.30;99.90;;;;;;5097158;28;20020;-79
2022/03/29 10:03:27;;;;;;;13.93;9.15;;;16.40;99.90;;;;;;5097868;28;20095;-79
2022/03/29 10:06:01;;;;;;;19.90;8.10;;;16.50;99.90;;;;;;5097448;28;20020;-78
2022/03/29 10:11:14;;;;;;;16.40;8.38;;;16.40;99.90;;;;;;5097777;28;20031;-78
2022/03/29 10:13:41;;;;;;;19.05;8.43;;;16.40;99.90;;;;;;5096102;28;20400;-80
2022/03/29 10:16:16;;;;;;;20.27;8.98;;;16.50;99.90;;;;;;5096010;28;20446;-79
2022/03/29 10:18:45;;;;;;;18.30;7.95;;;16.50;99.90;;;;;;5097328;28;20083;-79
2022/03/29 10:21:16;;;;;;;26.98;9.55;;;16.60;99.90;;;;;;5097566;28;20083;-78
2022/03/29 10:23:46;;;;;;;20.10;8.50;;;16.50;99.90;;;;;;5095140;28;20479;-79
2022/03/29 10:26:18;;;;;;;19.20;8.25;;;16.60;99.90;;;;;;5096149;28;20039;-79
2022/03/29 10:28:49;;;;;;;14.00;8.18;;;16.70;99.90;;;;;;5097004;28;20476;-79
2022/03/29 10:31:36;;;;;;;18.60;8.75;;;16.50;99.90;;;;;;5096987;28;20062;-78
2022/03/29 10:34:16;;;;;;;15.50;7.97;;;16.50;99.90;;;;;;5096035;28;20028;-78
2022/03/29 10:37:14;;;;;;;24.73;8.90;;;16.50;99.90;;;;;;5095343;28;20056;-78
2022/03/29 10:39:51;;;;;;;22.88;10.30;;;16.70;99.90;;;;;;5096680;28;20036;-78
2022/03/29 10:42:29;;;;;;;16.92;8.95;;;16.70;99.90;;;;;;5095672;28;20126;-78
2022/03/29 10:45:23;;;;;;;16.85;7.55;;;16.80;99.90;;;;;;5114770;27;20403;-79
2022/03/29 10:48:11;;;;;;;15.93;8.82;;;16.90;99.90;;;;;;5105580;28;20031;-78
2022/03/29 10:50:55;;;;;;;24.02;9.38;;;16.80;99.90;;;;;;5110894;28;20028;-79
2022/03/29 10:53:28;;;;;;;18.45;8.38;;;16.80;99.90;;;;;;5113992;28;20034;-78
2022/03/29 10:56:16;;;;;;;20.23;9.32;;;16.70;99.90;;;;;;5114901;28;20102;-79
2022/03/29 10:59:02;;;;;;;16.33;8.73;;;16.60;99.90;;;;;;5114688;28;20024;-79
2022/03/29 11:01:33;;;;;;;15.80;9.18;;;16.80;99.90;;;;;;5114418;28;20028;-79
2022/03/29 11:04:00;;;;;;;22.65;9.85;;;16.80;99.90;;;;;;5109807;28;20054;-78
2022/03/29 11:06:26;;;;;;;20.70;10.98;;;16.80;99.90;;;;;;5112186;28;20034;-79
2022/03/29 11:09:02;;;;;;;21.88;9.43;;;16.90;99.90;;;;;;5113665;28;20048;-78
2022/03/29 11:11:44;;;;;;;17.38;9.18;;;16.80;99.90;;;;;;5130274;28;20110;-78
2022/03/29 11:14:29;;;;;;;19.35;8.32;;;16.80;99.90;;;;;;5130055;28;20028;-78
2022/03/29 11:17:10;;;;;;;19.95;9.55;;;16.80;99.90;;;;;;5112828;28;20032;-79
2022/03/29 11:19:42;;;;;;;23.83;9.85;;;16.80;99.90;;;;;;5113235;28;20019;-78
2022/03/29 11:22:35;;;;;;;20.33;9.80;;;16.70;99.90;;;;;;5114301;28;20052;-77
2022/03/29 11:25:05;;;;;;;23.08;7.20;;;16.90;99.90;;;;;;5112117;28;20107;-78
2022/03/29 11:27:33;;;;;;;16.23;8.38;;;16.90;99.90;;;;;;5129024;28;20042;-78
2022/03/29 11:30:01;;;;;;;21.48;8.63;;;17.00;99.90;;;;;;5112910;28;20028;-78
2022/03/29 11:32:27;;;;;;;22.35;8.27;;;17.20;99.90;;;;;;5112805;28;20020;-78
2022/03/29 11:34:55;;;;;;;23.75;8.10;;;17.40;99.90;;;;;;5113413;28;20012;-78
2022/03/29 11:37:43;;;;;;;17.83;8.45;;;17.70;99.90;;;;;;5113484;28;20035;-77
2022/03/29 11:40:12;;;;;;;22.15;9.52;;;17.60;99.90;;;;;;5122397;28;20064;-78
2022/03/29 11:42:52;;;;;;;32.00;9.35;;;17.80;99.90;;;;;;5109679;28;20483;-78
2022/03/29 11:45:23;;;;;;;21.05;8.68;;;17.90;99.90;;;;;;5128501;28;20040;-80
2022/03/29 11:47:59;;;;;;;22.25;8.70;;;17.90;99.90;;;;;;5112749;28;20016;-80
2022/03/29 11:50:49;;;;;;;17.60;7.78;;;17.80;99.90;;;;;;5116258;28;20046;-79
2022/03/29 11:53:33;;;;;;;21.67;8.15;;;17.60;99.90;;;;;;5109958;28;20126;-78
2022/03/29 11:56:06;;;;;;;16.27;8.00;;;17.80;99.90;;;;;;5107576;28;20585;-84
2022/03/29 11:58:49;;;;;;;25.05;8.65;;;17.90;99.90;;;;;;5094172;28;20406;-83
2022/03/29 12:01:21;;;;;;;18.42;7.32;;;18.00;99.90;;;;;;5095268;28;20107;-83
2022/03/29 12:04:03;;;;;;;23.20;7.75;;;18.20;99.90;;;;;;5099010;28;20018;-82
2022/03/29 12:06:45;;;;;;;16.17;6.82;;;18.10;99.90;;;;;;5099240;28;20426;-83
2022/03/29 12:09:16;;;;;;;29.33;10.40;;;18.00;99.90;;;;;;5097794;28;20503;-82
2022/03/29 12:11:44;;;;;;;22.88;7.38;;;17.80;99.90;;;;;;5097672;28;20024;-82
2022/03/29 12:14:14;;;;;;;26.30;8.48;;;17.80;99.90;;;;;;5099754;28;20051;-79
2022/03/29 12:16:45;;;;;;;22.27;8.48;;;18.10;99.90;;;;;;5099416;28;20055;-81
2022/03/29 12:19:13;;;;;;;24.08;7.72;;;18.30;99.90;;;;;;5095191;28;20029;-82
2022/03/29 12:21:42;;;;;;;21.10;8.35;;;18.50;99.90;;;;;;5090211;28;20020;-79
2022/03/29 12:24:11;;;;;;;20.25;8.15;;;18.60;99.90;;;;;;5097047;28;20078;-82
2022/03/29 12:26:50;;;;;;;19.98;8.23;;;18.90;99.90;;;;;;5098487;28;20115;-82
2022/03/29 12:29:19;;;;;;;25.23;8.40;;;19.00;99.90;;;;;;5098506;28;20016;-81
2022/03/29 12:31:45;;;;;;;28.02;7.82;;;18.90;99.60;;;;;;5114974;28;20051;-80
2022/03/29 12:34:14;;;;;;;23.35;8.50;;;19.00;99.80;;;;;;5097455;28;20377;-82
2022/03/29 12:36:48;;;;;;;25.63;8.55;;;19.10;99.50;;;;;;5098117;28;20051;-83
2022/03/29 12:39:14;;;;;;;17.10;7.25;;;19.20;98.60;;;;;;5099286;28;20052;-81
2022/03/29 12:41:52;;;;;;;26.98;8.23;;;19.40;99.00;;;;;;5097933;28;20028;-81
2022/03/29 12:44:31;;;;;;;24.00;8.18;;;19.50;98.60;;;;;;5098027;28;20082;-81
2022/03/29 12:46:58;;;;;;;26.88;8.07;;;19.50;98.50;;;;;;5098864;28;20043;-81
2022/03/29 12:49:24;;;;;;;23.88;7.57;;;19.40;97.60;;;;;;5099383;28;20376;-82
2022/03/29 12:51:55;;;;;;;21.85;7.85;;;19.20;98.20;;;;;;5099364;28;20095;-79
2022/03/29 12:54:44;;;;;;;23.55;7.88;;;19.20;98.30;;;;;;5094505;28;20028;-83